Aviation Digital Data Service (ADDS)

Output produced by TAFs form (1332 UTC 25 September 2017)
found at http://www.aviationweather.gov/adds/tafs/
 
KPIT 251251Z 00000KT 10SM FEW150 BKN250 21/18 A3011 RMK AO2 SLP196 T02110183
KPIT 251131Z 2512/2618 12003KT P6SM BKN250
       
KBVI 251247Z 00000KT 10SM CLR 21/17 A3012
KBVI 251131Z 2512/2612 12003KT P6SM BKN250
       
KFKL 251315Z 00000KT 10SM CLR 20/18 A3016 RMK AO2 SLP301 PWINO FZRANO RVRNO
KFKL 251131Z 2512/2612 12003KT P6SM BKN250 
     TEMPO 2512/2514 1SM BR BKN001 
     FM260900 00000KT 2SM BR SCT250 AMD LTD TO CLD VIS AND WIND
       
KERI 251251Z 16008KT 9SM CLR 23/18 A3010 RMK AO2 SLP188 T02280183
KERI 251121Z 2512/2612 13006KT P6SM FEW250 
     FM251700 02007KT P6SM FEW250 
     FM260300 16004KT P6SM FEW200